sensor_id;sensor_type;location;lat;lon;timestamp;P1;durP1;ratioP1;P2;durP2;ratioP2
21114;SDS011;10715;48.546;9.896;2024-02-14T00:02:23;1.27;;;1.10;;
21114;SDS011;10715;48.546;9.896;2024-02-14T00:04:51;1.57;;;0.70;;
21114;SDS011;10715;48.546;9.896;2024-02-14T00:07:20;4.10;;;0.90;;
21114;SDS011;10715;48.546;9.896;2024-02-14T00:09:46;1.00;;;0.70;;
21114;SDS011;10715;48.546;9.896;2024-02-14T00:12:12;1.47;;;0.60;;
21114;SDS011;10715;48.546;9.896;2024-02-14T00:14:38;1.10;;;0.57;;
21114;SDS011;10715;48.546;9.896;2024-02-14T00:17:04;1.60;;;1.23;;
21114;SDS011;10715;48.546;9.896;2024-02-14T00:19:31;1.30;;;0.57;;
21114;SDS011;10715;48.546;9.896;2024-02-14T00:21:57;4.00;;;0.80;;
21114;SDS011;10715;48.546;9.896;2024-02-14T00:24:22;2.67;;;0.70;;
21114;SDS011;10715;48.546;9.896;2024-02-14T00:26:49;1.07;;;0.70;;
21114;SDS011;10715;48.546;9.896;2024-02-14T00:29:15;3.50;;;1.03;;
21114;SDS011;10715;48.546;9.896;2024-02-14T00:31:41;0.80;;;0.50;;
21114;SDS011;10715;48.546;9.896;2024-02-14T00:34:09;0.80;;;0.50;;
21114;SDS011;10715;48.546;9.896;2024-02-14T00:36:36;1.57;;;0.60;;
21114;SDS011;10715;48.546;9.896;2024-02-14T00:39:01;1.47;;;0.80;;
21114;SDS011;10715;48.546;9.896;2024-02-14T00:41:27;2.67;;;2.00;;
21114;SDS011;10715;48.546;9.896;2024-02-14T00:43:57;1.20;;;0.77;;
21114;SDS011;10715;48.546;9.896;2024-02-14T00:46:23;1.23;;;1.10;;
21114;SDS011;10715;48.546;9.896;2024-02-14T00:48:49;1.30;;;0.90;;
21114;SDS011;10715;48.546;9.896;2024-02-14T00:51:15;1.60;;;0.80;;
21114;SDS011;10715;48.546;9.896;2024-02-14T00:53:40;5.67;;;0.80;;
21114;SDS011;10715;48.546;9.896;2024-02-14T00:56:06;1.00;;;0.70;;
21114;SDS011;10715;48.546;9.896;2024-02-14T00:58:33;1.20;;;0.60;;
21114;SDS011;10715;48.546;9.896;2024-02-14T01:00:58;3.43;;;0.90;;
21114;SDS011;10715;48.546;9.896;2024-02-14T01:03:31;0.97;;;0.60;;
21114;SDS011;10715;48.546;9.896;2024-02-14T01:05:56;0.93;;;0.80;;
21114;SDS011;10715;48.546;9.896;2024-02-14T01:08:22;2.43;;;0.80;;
21114;SDS011;10715;48.546;9.896;2024-02-14T01:10:48;1.00;;;0.60;;
21114;SDS011;10715;48.546;9.896;2024-02-14T01:13:16;3.77;;;0.90;;
21114;SDS011;10715;48.546;9.896;2024-02-14T01:15:55;1.50;;;1.37;;
21114;SDS011;10715;48.546;9.896;2024-02-14T01:18:21;2.57;;;1.03;;
21114;SDS011;10715;48.546;9.896;2024-02-14T01:20:47;1.10;;;0.70;;
21114;SDS011;10715;48.546;9.896;2024-02-14T01:23:15;1.27;;;0.70;;
21114;SDS011;10715;48.546;9.896;2024-02-14T01:25:41;1.47;;;0.80;;
21114;SDS011;10715;48.546;9.896;2024-02-14T01:28:09;1.57;;;0.60;;
21114;SDS011;10715;48.546;9.896;2024-02-14T01:30:41;0.97;;;0.50;;
21114;SDS011;10715;48.546;9.896;2024-02-14T01:33:16;1.00;;;0.60;;
21114;SDS011;10715;48.546;9.896;2024-02-14T01:35:46;1.03;;;0.80;;
21114;SDS011;10715;48.546;9.896;2024-02-14T01:38:12;1.20;;;0.93;;
21114;SDS011;10715;48.546;9.896;2024-02-14T01:40:38;1.20;;;0.60;;
21114;SDS011;10715;48.546;9.896;2024-02-14T01:43:07;1.00;;;0.60;;
21114;SDS011;10715;48.546;9.896;2024-02-14T01:45:33;1.07;;;0.70;;
21114;SDS011;10715;48.546;9.896;2024-02-14T01:48:02;1.33;;;0.83;;
21114;SDS011;10715;48.546;9.896;2024-02-14T01:50:28;1.57;;;0.97;;
21114;SDS011;10715;48.546;9.896;2024-02-14T01:52:55;1.20;;;1.10;;
21114;SDS011;10715;48.546;9.896;2024-02-14T01:55:24;1.57;;;0.80;;
21114;SDS011;10715;48.546;9.896;2024-02-14T01:57:51;2.83;;;1.00;;
21114;SDS011;10715;48.546;9.896;2024-02-14T02:00:18;1.20;;;0.80;;
21114;SDS011;10715;48.546;9.896;2024-02-14T02:02:56;1.03;;;0.70;;
21114;SDS011;10715;48.546;9.896;2024-02-14T02:05:23;6.97;;;0.70;;
21114;SDS011;10715;48.546;9.896;2024-02-14T02:07:48;0.90;;;0.60;;
21114;SDS011;10715;48.546;9.896;2024-02-14T02:10:24;1.27;;;1.13;;
21114;SDS011;10715;48.546;9.896;2024-02-14T02:12:58;5.23;;;0.90;;
21114;SDS011;10715;48.546;9.896;2024-02-14T02:15:25;2.63;;;2.10;;
21114;SDS011;10715;48.546;9.896;2024-02-14T02:17:51;2.47;;;1.97;;
21114;SDS011;10715;48.546;9.896;2024-02-14T02:20:18;3.53;;;2.33;;
21114;SDS011;10715;48.546;9.896;2024-02-14T02:22:45;4.07;;;3.17;;
21114;SDS011;10715;48.546;9.896;2024-02-14T02:25:16;12.13;;;8.23;;
21114;SDS011;10715;48.546;9.896;2024-02-14T02:27:42;8.23;;;5.83;;
21114;SDS011;10715;48.546;9.896;2024-02-14T02:30:08;6.93;;;5.07;;
21114;SDS011;10715;48.546;9.896;2024-02-14T02:32:35;5.20;;;4.70;;
21114;SDS011;10715;48.546;9.896;2024-02-14T02:35:07;9.33;;;4.87;;
21114;SDS011;10715;48.546;9.896;2024-02-14T02:37:35;6.40;;;5.83;;
21114;SDS011;10715;48.546;9.896;2024-02-14T02:40:01;4.20;;;3.80;;
21114;SDS011;10715;48.546;9.896;2024-02-14T02:42:35;5.40;;;4.90;;
21114;SDS011;10715;48.546;9.896;2024-02-14T02:45:02;5.50;;;5.00;;
21114;SDS011;10715;48.546;9.896;2024-02-14T02:47:30;5.53;;;4.33;;
21114;SDS011;10715;48.546;9.896;2024-02-14T02:50:00;6.17;;;4.37;;
21114;SDS011;10715;48.546;9.896;2024-02-14T02:52:27;14.83;;;5.07;;
21114;SDS011;10715;48.546;9.896;2024-02-14T02:54:53;6.00;;;4.60;;
21114;SDS011;10715;48.546;9.896;2024-02-14T02:57:19;5.77;;;4.23;;
21114;SDS011;10715;48.546;9.896;2024-02-14T02:59:45;5.50;;;4.70;;
21114;SDS011;10715;48.546;9.896;2024-02-14T03:02:13;8.30;;;4.87;;
21114;SDS011;10715;48.546;9.896;2024-02-14T03:04:39;6.03;;;3.90;;
21114;SDS011;10715;48.546;9.896;2024-02-14T03:07:05;3.50;;;3.30;;
21114;SDS011;10715;48.546;9.896;2024-02-14T03:09:37;5.27;;;4.77;;
21114;SDS011;10715;48.546;9.896;2024-02-14T03:12:03;9.83;;;5.33;;
21114;SDS011;10715;48.546;9.896;2024-02-14T03:14:30;11.60;;;6.27;;
21114;SDS011;10715;48.546;9.896;2024-02-14T03:17:01;18.03;;;7.50;;
21114;SDS011;10715;48.546;9.896;2024-02-14T03:19:27;7.83;;;7.03;;
21114;SDS011;10715;48.546;9.896;2024-02-14T03:21:55;8.07;;;6.00;;
21114;SDS011;10715;48.546;9.896;2024-02-14T03:24:21;15.40;;;6.67;;
21114;SDS011;10715;48.546;9.896;2024-02-14T03:26:50;9.77;;;5.43;;
21114;SDS011;10715;48.546;9.896;2024-02-14T03:29:18;5.60;;;5.07;;
21114;SDS011;10715;48.546;9.896;2024-02-14T03:31:44;4.33;;;3.70;;
21114;SDS011;10715;48.546;9.896;2024-02-14T03:34:11;6.50;;;2.67;;
21114;SDS011;10715;48.546;9.896;2024-02-14T03:36:37;3.20;;;2.90;;
21114;SDS011;10715;48.546;9.896;2024-02-14T03:39:03;4.70;;;2.70;;
21114;SDS011;10715;48.546;9.896;2024-02-14T03:41:30;6.03;;;2.43;;
21114;SDS011;10715;48.546;9.896;2024-02-14T03:43:56;8.37;;;2.50;;
21114;SDS011;10715;48.546;9.896;2024-02-14T03:46:27;2.97;;;2.77;;
21114;SDS011;10715;48.546;9.896;2024-02-14T03:48:53;4.47;;;2.87;;
21114;SDS011;10715;48.546;9.896;2024-02-14T03:51:19;4.27;;;2.90;;
21114;SDS011;10715;48.546;9.896;2024-02-14T03:53:46;4.20;;;3.80;;
21114;SDS011;10715;48.546;9.896;2024-02-14T03:56:12;8.20;;;5.77;;
21114;SDS011;10715;48.546;9.896;2024-02-14T03:58:39;4.30;;;4.00;;
21114;SDS011;10715;48.546;9.896;2024-02-14T04:01:05;4.77;;;4.37;;
21114;SDS011;10715;48.546;9.896;2024-02-14T04:03:31;7.40;;;4.43;;
21114;SDS011;10715;48.546;9.896;2024-02-14T04:05:57;6.23;;;4.27;;
21114;SDS011;10715;48.546;9.896;2024-02-14T04:08:23;3.73;;;3.47;;
21114;SDS011;10715;48.546;9.896;2024-02-14T04:10:49;3.90;;;3.30;;
21114;SDS011;10715;48.546;9.896;2024-02-14T04:13:15;4.50;;;3.30;;
21114;SDS011;10715;48.546;9.896;2024-02-14T04:15:41;13.07;;;3.00;;
21114;SDS011;10715;48.546;9.896;2024-02-14T04:18:11;2.80;;;2.40;;
21114;SDS011;10715;48.546;9.896;2024-02-14T04:20:37;2.90;;;2.70;;
21114;SDS011;10715;48.546;9.896;2024-02-14T04:23:03;5.67;;;2.97;;
21114;SDS011;10715;48.546;9.896;2024-02-14T04:25:32;6.30;;;3.60;;
21114;SDS011;10715;48.546;9.896;2024-02-14T04:27:58;4.07;;;2.80;;
21114;SDS011;10715;48.546;9.896;2024-02-14T04:30:24;5.57;;;3.17;;
21114;SDS011;10715;48.546;9.896;2024-02-14T04:32:50;3.37;;;3.07;;
21114;SDS011;10715;48.546;9.896;2024-02-14T04:35:17;2.63;;;2.20;;
21114;SDS011;10715;48.546;9.896;2024-02-14T04:37:46;6.60;;;2.77;;
21114;SDS011;10715;48.546;9.896;2024-02-14T04:40:13;6.70;;;3.43;;
21114;SDS011;10715;48.546;9.896;2024-02-14T04:42:39;3.10;;;2.73;;
21114;SDS011;10715;48.546;9.896;2024-02-14T04:45:06;3.67;;;3.37;;
21114;SDS011;10715;48.546;9.896;2024-02-14T04:47:32;3.30;;;2.97;;
21114;SDS011;10715;48.546;9.896;2024-02-14T04:49:58;2.60;;;2.40;;
21114;SDS011;10715;48.546;9.896;2024-02-14T04:52:24;2.73;;;2.53;;
21114;SDS011;10715;48.546;9.896;2024-02-14T04:54:50;4.80;;;2.80;;
21114;SDS011;10715;48.546;9.896;2024-02-14T04:57:16;4.47;;;3.63;;
21114;SDS011;10715;48.546;9.896;2024-02-14T04:59:43;4.77;;;3.20;;
21114;SDS011;10715;48.546;9.896;2024-02-14T05:02:09;4.10;;;2.70;;
21114;SDS011;10715;48.546;9.896;2024-02-14T05:04:35;4.27;;;3.97;;
21114;SDS011;10715;48.546;9.896;2024-02-14T05:07:03;5.10;;;4.60;;
21114;SDS011;10715;48.546;9.896;2024-02-14T05:09:29;6.57;;;5.97;;
21114;SDS011;10715;48.546;9.896;2024-02-14T05:11:54;10.13;;;5.20;;
21114;SDS011;10715;48.546;9.896;2024-02-14T05:14:20;4.23;;;3.07;;
21114;SDS011;10715;48.546;9.896;2024-02-14T05:16:46;5.00;;;4.70;;
21114;SDS011;10715;48.546;9.896;2024-02-14T05:19:12;5.87;;;3.97;;
21114;SDS011;10715;48.546;9.896;2024-02-14T05:21:38;4.80;;;4.40;;
21114;SDS011;10715;48.546;9.896;2024-02-14T05:24:04;5.97;;;5.33;;
21114;SDS011;10715;48.546;9.896;2024-02-14T05:26:31;4.60;;;3.60;;
21114;SDS011;10715;48.546;9.896;2024-02-14T05:28:57;5.20;;;4.57;;
21114;SDS011;10715;48.546;9.896;2024-02-14T05:31:24;5.33;;;4.57;;
21114;SDS011;10715;48.546;9.896;2024-02-14T05:33:49;6.40;;;5.17;;
21114;SDS011;10715;48.546;9.896;2024-02-14T05:36:15;7.20;;;4.93;;
21114;SDS011;10715;48.546;9.896;2024-02-14T05:38:42;6.10;;;4.90;;
21114;SDS011;10715;48.546;9.896;2024-02-14T05:41:08;8.83;;;5.90;;
21114;SDS011;10715;48.546;9.896;2024-02-14T05:43:34;11.73;;;7.37;;
21114;SDS011;10715;48.546;9.896;2024-02-14T05:46:00;10.13;;;8.30;;
21114;SDS011;10715;48.546;9.896;2024-02-14T05:48:26;11.63;;;8.97;;
21114;SDS011;10715;48.546;9.896;2024-02-14T05:50:51;10.50;;;8.50;;
21114;SDS011;10715;48.546;9.896;2024-02-14T05:53:17;22.83;;;11.97;;
21114;SDS011;10715;48.546;9.896;2024-02-14T05:55:43;13.30;;;9.17;;
21114;SDS011;10715;48.546;9.896;2024-02-14T05:58:09;18.33;;;9.57;;
21114;SDS011;10715;48.546;9.896;2024-02-14T06:00:35;18.40;;;10.43;;
21114;SDS011;10715;48.546;9.896;2024-02-14T06:03:00;19.07;;;13.00;;
21114;SDS011;10715;48.546;9.896;2024-02-14T06:05:27;17.50;;;11.80;;
21114;SDS011;10715;48.546;9.896;2024-02-14T06:07:52;15.27;;;8.77;;
21114;SDS011;10715;48.546;9.896;2024-02-14T06:10:18;13.80;;;6.93;;
21114;SDS011;10715;48.546;9.896;2024-02-14T06:12:44;11.30;;;6.40;;
21114;SDS011;10715;48.546;9.896;2024-02-14T06:15:11;15.27;;;6.67;;
21114;SDS011;10715;48.546;9.896;2024-02-14T06:17:36;11.17;;;6.57;;
21114;SDS011;10715;48.546;9.896;2024-02-14T06:20:03;11.73;;;6.60;;
21114;SDS011;10715;48.546;9.896;2024-02-14T06:22:32;8.73;;;6.33;;
21114;SDS011;10715;48.546;9.896;2024-02-14T06:24:59;7.17;;;6.40;;
21114;SDS011;10715;48.546;9.896;2024-02-14T06:27:29;6.37;;;4.43;;
21114;SDS011;10715;48.546;9.896;2024-02-14T06:29:56;6.23;;;4.43;;
21114;SDS011;10715;48.546;9.896;2024-02-14T06:32:22;3.50;;;3.20;;
21114;SDS011;10715;48.546;9.896;2024-02-14T06:34:47;5.60;;;4.13;;
21114;SDS011;10715;48.546;9.896;2024-02-14T06:37:13;27.10;;;13.37;;
21114;SDS011;10715;48.546;9.896;2024-02-14T06:39:39;14.40;;;9.00;;
21114;SDS011;10715;48.546;9.896;2024-02-14T06:42:04;11.60;;;6.10;;
21114;SDS011;10715;48.546;9.896;2024-02-14T06:44:30;11.23;;;6.90;;
21114;SDS011;10715;48.546;9.896;2024-02-14T06:46:56;10.23;;;7.93;;
21114;SDS011;10715;48.546;9.896;2024-02-14T06:49:23;8.87;;;7.10;;
21114;SDS011;10715;48.546;9.896;2024-02-14T06:51:48;12.37;;;7.40;;
21114;SDS011;10715;48.546;9.896;2024-02-14T06:54:14;8.07;;;6.70;;
21114;SDS011;10715;48.546;9.896;2024-02-14T06:56:42;6.00;;;4.80;;
21114;SDS011;10715;48.546;9.896;2024-02-14T06:59:07;9.13;;;6.97;;
21114;SDS011;10715;48.546;9.896;2024-02-14T07:01:33;9.37;;;5.80;;
21114;SDS011;10715;48.546;9.896;2024-02-14T07:03:59;15.53;;;7.90;;
21114;SDS011;10715;48.546;9.896;2024-02-14T07:06:26;9.00;;;8.17;;
21114;SDS011;10715;48.546;9.896;2024-02-14T07:08:52;13.80;;;10.10;;
21114;SDS011;10715;48.546;9.896;2024-02-14T07:11:18;27.67;;;15.40;;
21114;SDS011;10715;48.546;9.896;2024-02-14T07:13:44;16.80;;;10.43;;
21114;SDS011;10715;48.546;9.896;2024-02-14T07:16:10;26.77;;;15.63;;
21114;SDS011;10715;48.546;9.896;2024-02-14T07:18:35;17.53;;;11.57;;
21114;SDS011;10715;48.546;9.896;2024-02-14T07:21:01;7.67;;;6.93;;
21114;SDS011;10715;48.546;9.896;2024-02-14T07:23:27;6.37;;;5.07;;
21114;SDS011;10715;48.546;9.896;2024-02-14T07:25:53;11.00;;;5.10;;
21114;SDS011;10715;48.546;9.896;2024-02-14T07:28:19;5.67;;;5.07;;
21114;SDS011;10715;48.546;9.896;2024-02-14T07:30:44;7.50;;;5.70;;
21114;SDS011;10715;48.546;9.896;2024-02-14T07:33:10;11.63;;;8.60;;
21114;SDS011;10715;48.546;9.896;2024-02-14T07:35:39;9.87;;;7.10;;
21114;SDS011;10715;48.546;9.896;2024-02-14T07:38:04;7.50;;;6.47;;
21114;SDS011;10715;48.546;9.896;2024-02-14T07:40:30;4.97;;;4.57;;
21114;SDS011;10715;48.546;9.896;2024-02-14T07:42:56;5.27;;;4.30;;
21114;SDS011;10715;48.546;9.896;2024-02-14T07:45:22;6.70;;;2.70;;
21114;SDS011;10715;48.546;9.896;2024-02-14T07:47:51;3.70;;;3.40;;
21114;SDS011;10715;48.546;9.896;2024-02-14T07:50:17;2.83;;;2.57;;
21114;SDS011;10715;48.546;9.896;2024-02-14T07:52:43;4.63;;;3.33;;
21114;SDS011;10715;48.546;9.896;2024-02-14T07:55:10;4.13;;;2.93;;
21114;SDS011;10715;48.546;9.896;2024-02-14T07:57:37;4.80;;;3.20;;
21114;SDS011;10715;48.546;9.896;2024-02-14T08:00:09;5.33;;;4.30;;
21114;SDS011;10715;48.546;9.896;2024-02-14T08:02:36;3.60;;;2.03;;
21114;SDS011;10715;48.546;9.896;2024-02-14T08:05:02;3.43;;;3.23;;
21114;SDS011;10715;48.546;9.896;2024-02-14T08:07:29;3.90;;;2.80;;
21114;SDS011;10715;48.546;9.896;2024-02-14T08:09:55;5.87;;;3.67;;
21114;SDS011;10715;48.546;9.896;2024-02-14T08:12:21;3.40;;;2.93;;
21114;SDS011;10715;48.546;9.896;2024-02-14T08:14:48;5.93;;;4.10;;
21114;SDS011;10715;48.546;9.896;2024-02-14T08:17:13;3.93;;;3.03;;
21114;SDS011;10715;48.546;9.896;2024-02-14T08:19:39;5.77;;;3.07;;
21114;SDS011;10715;48.546;9.896;2024-02-14T08:22:05;5.13;;;4.63;;
21114;SDS011;10715;48.546;9.896;2024-02-14T08:24:32;7.53;;;4.90;;
21114;SDS011;10715;48.546;9.896;2024-02-14T08:26:57;4.00;;;3.70;;
21114;SDS011;10715;48.546;9.896;2024-02-14T08:29:23;4.20;;;3.67;;
21114;SDS011;10715;48.546;9.896;2024-02-14T08:31:49;6.47;;;4.43;;
21114;SDS011;10715;48.546;9.896;2024-02-14T08:34:15;4.53;;;3.40;;
21114;SDS011;10715;48.546;9.896;2024-02-14T08:36:41;4.57;;;4.20;;
21114;SDS011;10715;48.546;9.896;2024-02-14T08:39:08;4.03;;;2.03;;
21114;SDS011;10715;48.546;9.896;2024-02-14T08:41:35;3.83;;;2.93;;
21114;SDS011;10715;48.546;9.896;2024-02-14T08:44:01;3.57;;;3.27;;
21114;SDS011;10715;48.546;9.896;2024-02-14T08:46:27;5.43;;;2.80;;
21114;SDS011;10715;48.546;9.896;2024-02-14T08:48:53;4.63;;;3.40;;
21114;SDS011;10715;48.546;9.896;2024-02-14T08:51:18;2.67;;;2.33;;
21114;SDS011;10715;48.546;9.896;2024-02-14T08:53:47;6.20;;;2.80;;
21114;SDS011;10715;48.546;9.896;2024-02-14T08:56:13;8.97;;;4.47;;
21114;SDS011;10715;48.546;9.896;2024-02-14T08:58:39;4.80;;;3.03;;
21114;SDS011;10715;48.546;9.896;2024-02-14T09:01:05;3.23;;;2.93;;
21114;SDS011;10715;48.546;9.896;2024-02-14T09:03:32;8.03;;;2.77;;
21114;SDS011;10715;48.546;9.896;2024-02-14T09:05:57;6.13;;;3.97;;
21114;SDS011;10715;48.546;9.896;2024-02-14T09:08:23;2.73;;;2.53;;
21114;SDS011;10715;48.546;9.896;2024-02-14T09:10:49;2.50;;;1.90;;
21114;SDS011;10715;48.546;9.896;2024-02-14T09:13:15;4.13;;;2.07;;
21114;SDS011;10715;48.546;9.896;2024-02-14T09:15:42;7.27;;;4.53;;
21114;SDS011;10715;48.546;9.896;2024-02-14T09:18:08;2.87;;;1.30;;
21114;SDS011;10715;48.546;9.896;2024-02-14T09:20:33;1.30;;;1.10;;
21114;SDS011;10715;48.546;9.896;2024-02-14T09:22:59;2.30;;;1.70;;
21114;SDS011;10715;48.546;9.896;2024-02-14T09:25:25;1.80;;;1.40;;
21114;SDS011;10715;48.546;9.896;2024-02-14T09:27:51;6.43;;;1.20;;
21114;SDS011;10715;48.546;9.896;2024-02-14T09:30:18;4.00;;;2.03;;
21114;SDS011;10715;48.546;9.896;2024-02-14T09:32:44;2.40;;;1.17;;
21114;SDS011;10715;48.546;9.896;2024-02-14T09:35:10;6.83;;;6.13;;
21114;SDS011;10715;48.546;9.896;2024-02-14T09:37:36;4.77;;;2.30;;
21114;SDS011;10715;48.546;9.896;2024-02-14T09:40:07;3.30;;;1.60;;
21114;SDS011;10715;48.546;9.896;2024-02-14T09:42:38;2.37;;;1.80;;
21114;SDS011;10715;48.546;9.896;2024-02-14T09:45:10;2.90;;;2.33;;
21114;SDS011;10715;48.546;9.896;2024-02-14T09:47:36;2.97;;;1.27;;
21114;SDS011;10715;48.546;9.896;2024-02-14T09:50:04;1.40;;;1.00;;
21114;SDS011;10715;48.546;9.896;2024-02-14T09:52:32;7.67;;;2.20;;
21114;SDS011;10715;48.546;9.896;2024-02-14T09:54:58;3.30;;;1.07;;
21114;SDS011;10715;48.546;9.896;2024-02-14T09:57:25;1.50;;;0.80;;
21114;SDS011;10715;48.546;9.896;2024-02-14T09:59:53;2.03;;;1.70;;
21114;SDS011;10715;48.546;9.896;2024-02-14T10:02:21;2.37;;;0.87;;
21114;SDS011;10715;48.546;9.896;2024-02-14T10:04:47;1.00;;;0.80;;
21114;SDS011;10715;48.546;9.896;2024-02-14T10:07:13;0.73;;;0.53;;
21114;SDS011;10715;48.546;9.896;2024-02-14T10:09:41;0.80;;;0.40;;
21114;SDS011;10715;48.546;9.896;2024-02-14T10:12:08;1.23;;;0.53;;
21114;SDS011;10715;48.546;9.896;2024-02-14T10:14:34;2.67;;;0.60;;
21114;SDS011;10715;48.546;9.896;2024-02-14T10:17:03;1.07;;;0.43;;
21114;SDS011;10715;48.546;9.896;2024-02-14T10:19:29;2.33;;;0.60;;
21114;SDS011;10715;48.546;9.896;2024-02-14T10:21:59;1.43;;;0.70;;
21114;SDS011;10715;48.546;9.896;2024-02-14T10:24:28;0.97;;;0.43;;
21114;SDS011;10715;48.546;9.896;2024-02-14T10:26:56;1.30;;;0.50;;
21114;SDS011;10715;48.546;9.896;2024-02-14T10:29:24;1.00;;;0.50;;
21114;SDS011;10715;48.546;9.896;2024-02-14T10:31:50;1.13;;;0.67;;
21114;SDS011;10715;48.546;9.896;2024-02-14T10:34:18;2.60;;;0.70;;
21114;SDS011;10715;48.546;9.896;2024-02-14T10:36:48;2.47;;;0.40;;
21114;SDS011;10715;48.546;9.896;2024-02-14T10:39:15;0.80;;;0.37;;
21114;SDS011;10715;48.546;9.896;2024-02-14T10:41:42;0.80;;;0.30;;
21114;SDS011;10715;48.546;9.896;2024-02-14T10:44:09;0.53;;;0.30;;
21114;SDS011;10715;48.546;9.896;2024-02-14T10:46:36;0.70;;;0.33;;
21114;SDS011;10715;48.546;9.896;2024-02-14T10:49:03;1.10;;;0.60;;
21114;SDS011;10715;48.546;9.896;2024-02-14T10:51:35;0.70;;;0.40;;
21114;SDS011;10715;48.546;9.896;2024-02-14T10:54:03;0.70;;;0.30;;
21114;SDS011;10715;48.546;9.896;2024-02-14T10:56:34;0.70;;;0.30;;
21114;SDS011;10715;48.546;9.896;2024-02-14T10:59:03;0.80;;;0.30;;
21114;SDS011;10715;48.546;9.896;2024-02-14T11:01:30;1.20;;;0.50;;
21114;SDS011;10715;48.546;9.896;2024-02-14T11:04:02;0.90;;;0.40;;
21114;SDS011;10715;48.546;9.896;2024-02-14T11:06:30;0.83;;;0.40;;
21114;SDS011;10715;48.546;9.896;2024-02-14T11:09:02;1.00;;;0.33;;
21114;SDS011;10715;48.546;9.896;2024-02-14T11:11:32;0.57;;;0.30;;
21114;SDS011;10715;48.546;9.896;2024-02-14T11:13:59;4.70;;;0.50;;
21114;SDS011;10715;48.546;9.896;2024-02-14T11:16:25;10.80;;;0.40;;
21114;SDS011;10715;48.546;9.896;2024-02-14T11:21:36;0.60;;;0.27;;
21114;SDS011;10715;48.546;9.896;2024-02-14T11:24:05;0.60;;;0.30;;
21114;SDS011;10715;48.546;9.896;2024-02-14T11:26:38;0.50;;;0.20;;
21114;SDS011;10715;48.546;9.896;2024-02-14T11:29:14;1.73;;;0.30;;
21114;SDS011;10715;48.546;9.896;2024-02-14T11:31:44;0.50;;;0.23;;
21114;SDS011;10715;48.546;9.896;2024-02-14T11:34:13;0.50;;;0.30;;
21114;SDS011;10715;48.546;9.896;2024-02-14T11:36:42;0.50;;;0.30;;
21114;SDS011;10715;48.546;9.896;2024-02-14T11:39:13;0.50;;;0.30;;
21114;SDS011;10715;48.546;9.896;2024-02-14T11:41:39;0.53;;;0.30;;
21114;SDS011;10715;48.546;9.896;2024-02-14T11:44:07;0.73;;;0.30;;
21114;SDS011;10715;48.546;9.896;2024-02-14T11:46:34;0.60;;;0.33;;
21114;SDS011;10715;48.546;9.896;2024-02-14T11:49:02;1.37;;;0.40;;
21114;SDS011;10715;48.546;9.896;2024-02-14T11:51:29;1.00;;;0.40;;
21114;SDS011;10715;48.546;9.896;2024-02-14T11:53:57;0.50;;;0.20;;
21114;SDS011;10715;48.546;9.896;2024-02-14T11:56:33;0.60;;;0.30;;
21114;SDS011;10715;48.546;9.896;2024-02-14T11:59:00;0.50;;;0.20;;
21114;SDS011;10715;48.546;9.896;2024-02-14T12:01:28;0.70;;;0.30;;
21114;SDS011;10715;48.546;9.896;2024-02-14T12:03:59;0.83;;;0.30;;
21114;SDS011;10715;48.546;9.896;2024-02-14T12:06:26;0.50;;;0.20;;
21114;SDS011;10715;48.546;9.896;2024-02-14T12:08:53;0.60;;;0.30;;
21114;SDS011;10715;48.546;9.896;2024-02-14T12:11:20;0.53;;;0.30;;
21114;SDS011;10715;48.546;9.896;2024-02-14T12:13:49;0.60;;;0.27;;
21114;SDS011;10715;48.546;9.896;2024-02-14T12:16:15;0.80;;;0.30;;
21114;SDS011;10715;48.546;9.896;2024-02-14T12:18:44;0.57;;;0.30;;
21114;SDS011;10715;48.546;9.896;2024-02-14T12:21:10;0.60;;;0.30;;
21114;SDS011;10715;48.546;9.896;2024-02-14T12:23:37;0.53;;;0.30;;
21114;SDS011;10715;48.546;9.896;2024-02-14T12:26:03;0.60;;;0.30;;
21114;SDS011;10715;48.546;9.896;2024-02-14T12:28:30;0.70;;;0.30;;
21114;SDS011;10715;48.546;9.896;2024-02-14T12:30:57;0.60;;;0.30;;
21114;SDS011;10715;48.546;9.896;2024-02-14T12:33:24;0.93;;;0.30;;
21114;SDS011;10715;48.546;9.896;2024-02-14T12:35:51;0.77;;;0.40;;
21114;SDS011;10715;48.546;9.896;2024-02-14T12:38:19;0.60;;;0.30;;
21114;SDS011;10715;48.546;9.896;2024-02-14T12:40:46;0.60;;;0.30;;
21114;SDS011;10715;48.546;9.896;2024-02-14T12:43:12;1.00;;;0.23;;
21114;SDS011;10715;48.546;9.896;2024-02-14T12:45:39;0.73;;;0.30;;
21114;SDS011;10715;48.546;9.896;2024-02-14T12:48:06;0.50;;;0.30;;
21114;SDS011;10715;48.546;9.896;2024-02-14T12:50:33;0.80;;;0.30;;
21114;SDS011;10715;48.546;9.896;2024-02-14T12:53:13;0.50;;;0.30;;
21114;SDS011;10715;48.546;9.896;2024-02-14T12:55:39;0.60;;;0.30;;
21114;SDS011;10715;48.546;9.896;2024-02-14T12:58:05;0.87;;;0.30;;
21114;SDS011;10715;48.546;9.896;2024-02-14T13:00:30;1.63;;;0.30;;
21114;SDS011;10715;48.546;9.896;2024-02-14T13:02:57;0.50;;;0.20;;
21114;SDS011;10715;48.546;9.896;2024-02-14T13:05:23;0.70;;;0.40;;
21114;SDS011;10715;48.546;9.896;2024-02-14T13:07:50;0.67;;;0.30;;
21114;SDS011;10715;48.546;9.896;2024-02-14T13:10:16;0.93;;;0.30;;
21114;SDS011;10715;48.546;9.896;2024-02-14T13:12:43;0.50;;;0.20;;
21114;SDS011;10715;48.546;9.896;2024-02-14T13:15:10;1.10;;;0.40;;
21114;SDS011;10715;48.546;9.896;2024-02-14T13:17:36;0.57;;;0.30;;
21114;SDS011;10715;48.546;9.896;2024-02-14T13:20:02;1.20;;;0.70;;
21114;SDS011;10715;48.546;9.896;2024-02-14T13:22:28;1.93;;;0.60;;
21114;SDS011;10715;48.546;9.896;2024-02-14T13:24:54;0.80;;;0.30;;
21114;SDS011;10715;48.546;9.896;2024-02-14T13:27:21;0.80;;;0.50;;
21114;SDS011;10715;48.546;9.896;2024-02-14T13:29:48;0.70;;;0.37;;
21114;SDS011;10715;48.546;9.896;2024-02-14T13:32:14;0.70;;;0.40;;
21114;SDS011;10715;48.546;9.896;2024-02-14T13:34:40;0.70;;;0.30;;
21114;SDS011;10715;48.546;9.896;2024-02-14T13:37:08;0.50;;;0.30;;
21114;SDS011;10715;48.546;9.896;2024-02-14T13:39:34;0.70;;;0.33;;
21114;SDS011;10715;48.546;9.896;2024-02-14T13:42:00;0.70;;;0.30;;
21114;SDS011;10715;48.546;9.896;2024-02-14T13:44:26;1.00;;;0.37;;
21114;SDS011;10715;48.546;9.896;2024-02-14T13:46:52;0.60;;;0.30;;
21114;SDS011;10715;48.546;9.896;2024-02-14T13:49:19;0.63;;;0.30;;
21114;SDS011;10715;48.546;9.896;2024-02-14T13:51:48;1.10;;;0.40;;
21114;SDS011;10715;48.546;9.896;2024-02-14T13:54:16;4.30;;;0.40;;
21114;SDS011;10715;48.546;9.896;2024-02-14T13:56:42;0.77;;;0.30;;
21114;SDS011;10715;48.546;9.896;2024-02-14T13:59:08;0.60;;;0.30;;
21114;SDS011;10715;48.546;9.896;2024-02-14T14:01:35;0.60;;;0.30;;
21114;SDS011;10715;48.546;9.896;2024-02-14T14:04:02;1.97;;;0.50;;
21114;SDS011;10715;48.546;9.896;2024-02-14T14:06:29;0.70;;;0.47;;
21114;SDS011;10715;48.546;9.896;2024-02-14T14:08:55;0.60;;;0.20;;
21114;SDS011;10715;48.546;9.896;2024-02-14T14:11:21;1.17;;;0.60;;
21114;SDS011;10715;48.546;9.896;2024-02-14T14:13:48;0.50;;;0.30;;
21114;SDS011;10715;48.546;9.896;2024-02-14T14:16:14;0.60;;;0.30;;
21114;SDS011;10715;48.546;9.896;2024-02-14T14:18:40;0.90;;;0.30;;
21114;SDS011;10715;48.546;9.896;2024-02-14T14:21:05;3.87;;;0.30;;
21114;SDS011;10715;48.546;9.896;2024-02-14T14:23:31;0.80;;;0.30;;
21114;SDS011;10715;48.546;9.896;2024-02-14T14:25:58;1.40;;;0.30;;
21114;SDS011;10715;48.546;9.896;2024-02-14T14:28:25;0.53;;;0.20;;
21114;SDS011;10715;48.546;9.896;2024-02-14T14:30:51;0.60;;;0.30;;
21114;SDS011;10715;48.546;9.896;2024-02-14T14:33:19;2.00;;;0.30;;
21114;SDS011;10715;48.546;9.896;2024-02-14T14:35:45;1.60;;;0.90;;
21114;SDS011;10715;48.546;9.896;2024-02-14T14:38:10;1.37;;;0.73;;
21114;SDS011;10715;48.546;9.896;2024-02-14T14:40:36;2.23;;;0.70;;
21114;SDS011;10715;48.546;9.896;2024-02-14T14:43:02;1.00;;;0.60;;
21114;SDS011;10715;48.546;9.896;2024-02-14T14:45:29;1.30;;;0.40;;
21114;SDS011;10715;48.546;9.896;2024-02-14T14:47:56;2.40;;;0.60;;